Time;durP1;ratioP1;P1;durP2;ratioP2;P2;SDS_P1;SDS_P2;PMS_P1;PMS_P2;Temp;Humidity;BMP_temperature;BMP_pressure;BME280_temperature;BME280_humidity;BME280_pressure;Samples;Min_cycle;Max_cycle;Signal;HPM_P1;HPM_P2
2023/05/24 00:01:08;;;;;;;15.55;3.15;;;;;;;11.68;63.63;101840.28;5015265;28;20046;-63
2023/05/24 00:03:38;;;;;;;20.13;3.53;;;;;;;11.72;63.73;101843.28;5015989;28;20064;-63
2023/05/24 00:06:05;;;;;;;18.08;3.75;;;;;;;11.67;64.54;101833.13;5014883;28;20041;-63
2023/05/24 00:08:33;;;;;;;23.92;4.55;;;;;;;11.45;65.22;101827.28;5014840;28;20062;-63
2023/05/24 00:11:00;;;;;;;23.23;4.35;;;;;;;11.63;65.06;101831.22;5029250;28;20590;-63
2023/05/24 00:13:28;;;;;;;21.83;3.70;;;;;;;11.68;64.72;101833.97;5014040;28;20054;-63
2023/05/24 00:15:55;;;;;;;24.45;3.63;;;;;;;11.69;64.70;101827.31;5030181;28;20508;-65
2023/05/24 00:18:23;;;;;;;21.15;4.10;;;;;;;11.97;64.08;101809.84;5014939;28;20054;-64
2023/05/24 00:20:50;;;;;;;29.17;4.53;;;;;;;11.57;64.93;101819.41;5014540;28;20054;-64
2023/05/24 00:23:18;;;;;;;15.43;3.72;;;;;;;11.60;65.24;101813.31;5015482;28;20085;-63
2023/05/24 00:25:45;;;;;;;23.40;4.40;;;;;;;11.69;64.98;101803.31;5015113;28;20046;-63
2023/05/24 00:28:12;;;;;;;20.73;4.53;;;;;;;11.79;64.70;101805.94;4997344;28;20049;-63
2023/05/24 00:30:40;;;;;;;14.10;3.45;;;;;;;11.58;65.25;101815.53;5015300;28;20042;-63
2023/05/24 00:33:08;;;;;;;16.25;3.60;;;;;;;11.44;66.15;101811.03;4997437;28;20057;-64
2023/05/24 00:35:35;;;;;;;20.35;4.72;;;;;;;11.62;66.17;101804.72;5013424;28;20489;-64
2023/05/24 00:38:02;;;;;;;21.35;3.80;;;;;;;11.58;66.18;101801.72;5014397;28;20045;-64
2023/05/24 00:40:30;;;;;;;16.20;4.10;;;;;;;11.64;66.07;101796.97;5014934;28;20049;-64
2023/05/24 00:42:57;;;;;;;25.05;4.20;;;;;;;11.34;66.80;101800.91;5029727;28;20049;-63
2023/05/24 00:45:24;;;;;;;18.02;3.83;;;;;;;11.38;66.95;101796.47;5015390;28;20050;-63
2023/05/24 00:47:52;;;;;;;22.02;4.40;;;;;;;11.38;67.47;101792.88;5015473;28;20049;-65
2023/05/24 00:50:20;;;;;;;20.52;4.10;;;;;;;11.36;67.61;101801.44;5013689;28;20061;-63
2023/05/24 00:52:48;;;;;;;21.27;3.67;;;;;;;11.59;67.07;101795.13;5013430;28;20053;-63
2023/05/24 00:55:17;;;;;;;21.27;4.97;;;;;;;11.13;67.91;101800.28;4984746;28;20043;-64
2023/05/24 00:57:44;;;;;;;20.60;4.63;;;;;;;11.21;68.41;101794.13;5022500;28;20300;-63
2023/05/24 01:00:12;;;;;;;18.80;4.13;;;;;;;11.07;68.63;101801.44;4997240;28;20045;-64
2023/05/24 01:02:39;;;;;;;19.38;4.20;;;;;;;11.15;68.80;101776.03;5014231;28;20049;-64
2023/05/24 01:05:08;;;;;;;23.17;4.40;;;;;;;11.07;68.82;101787.66;5014960;28;20041;-63
2023/05/24 01:07:53;;;;;;;16.85;4.00;;;;;;;11.25;68.55;101786.94;5014518;28;20421;-64
2023/05/24 01:10:25;;;;;;;22.85;4.65;;;;;;;11.42;68.19;101788.41;4996207;28;20087;-63
2023/05/24 01:13:02;;;;;;;26.58;4.38;;;;;;;11.42;68.14;101788.41;4996127;28;20060;-64
2023/05/24 01:15:39;;;;;;;17.38;4.70;;;;;;;11.46;67.77;101787.53;5014044;28;20050;-63
2023/05/24 01:18:14;;;;;;;22.98;4.65;;;;;;;10.96;69.29;101805.44;5013528;28;20058;-63
2023/05/24 01:20:42;;;;;;;21.15;4.25;;;;;;;10.77;70.52;101798.16;4995959;28;20505;-63
2023/05/24 01:23:46;;;;;;;19.80;3.80;;;;;;;10.60;71.41;101806.81;5029390;28;20481;-63
2023/05/24 01:26:21;;;;;;;14.88;3.85;;;;;;;10.67;71.65;101799.03;4981016;28;20050;-63
2023/05/24 01:28:48;;;;;;;20.50;4.43;;;;;;;10.54;72.15;101796.13;5018390;28;20069;-63
2023/05/24 01:31:17;;;;;;;16.30;4.32;;;;;;;10.67;71.89;101795.50;5013117;28;20050;-63
2023/05/24 01:33:45;;;;;;;20.17;4.20;;;;;;;10.86;71.34;101810.22;5008349;28;20050;-63
2023/05/24 01:36:12;;;;;;;20.13;4.40;;;;;;;10.58;72.18;101794.44;5013825;28;20058;-63
2023/05/24 01:38:40;;;;;;;22.60;4.75;;;;;;;10.73;72.07;101792.41;5013644;28;20049;-63
2023/05/24 01:41:17;;;;;;;15.35;5.18;;;;;;;10.88;71.75;101800.53;4996795;28;20045;-64
2023/05/24 01:43:52;;;;;;;19.35;4.97;;;;;;;10.99;71.19;101801.25;5003041;28;20493;-62
2023/05/24 01:46:33;;;;;;;21.02;5.03;;;;;;;10.90;71.27;101803.81;5009581;28;20057;-63
2023/05/24 01:49:11;;;;;;;20.67;4.88;;;;;;;10.27;73.36;101807.59;4995032;28;20060;-62
2023/05/24 01:51:59;;;;;;;19.33;4.43;;;;;;;10.23;74.29;101809.28;5027033;28;20464;-63
2023/05/24 01:54:32;;;;;;;21.98;5.40;;;;;;;10.39;73.79;101801.75;5009173;28;20054;-63
2023/05/24 01:57:04;;;;;;;20.58;4.75;;;;;;;10.49;73.39;101797.00;4994601;28;20595;-65
2023/05/24 01:59:32;;;;;;;21.77;4.80;;;;;;;10.53;73.42;101797.25;5002796;28;20052;-63
2023/05/24 02:02:00;;;;;;;18.58;4.53;;;;;;;10.58;73.33;101806.31;4980121;28;20062;-63
2023/05/24 02:04:27;;;;;;;23.27;5.03;;;;;;;10.33;73.91;101809.22;4995630;28;20058;-64
2023/05/24 02:06:55;;;;;;;20.08;5.03;;;;;;;10.19;74.78;101798.03;4996661;28;20528;-62
2023/05/24 02:09:22;;;;;;;15.88;5.07;;;;;;;10.09;75.72;101797.25;5013059;28;20568;-64
2023/05/24 02:11:49;;;;;;;23.35;5.30;;;;;;;10.34;74.99;101816.38;5013603;28;20485;-64
2023/05/24 02:14:18;;;;;;;21.17;4.57;;;;;;;10.42;74.60;101818.53;5013703;28;20061;-63
2023/05/24 02:16:46;;;;;;;25.53;4.93;;;;;;;10.40;74.03;101823.50;4995948;28;20053;-63
2023/05/24 02:19:14;;;;;;;22.75;5.03;;;;;;;10.16;75.71;101814.28;5010736;28;20066;-65
2023/05/24 02:21:41;;;;;;;23.20;4.80;;;;;;;10.35;74.96;101801.50;5028539;28;20058;-63
2023/05/24 02:24:11;;;;;;;19.98;5.18;;;;;;;10.36;74.78;101796.78;5012371;28;20048;-64
2023/05/24 02:26:38;;;;;;;26.67;5.32;;;;;;;10.19;75.40;101795.28;5013498;28;20059;-64
2023/05/24 02:29:06;;;;;;;22.48;5.78;;;;;;;10.10;75.90;101793.38;5002508;28;20050;-64
2023/05/24 02:31:33;;;;;;;24.90;5.47;;;;;;;10.32;75.37;101793.00;4996554;28;20053;-62
2023/05/24 02:34:01;;;;;;;22.70;5.38;;;;;;;10.32;75.28;101796.53;5003681;28;20054;-64
2023/05/24 02:36:28;;;;;;;24.98;5.13;;;;;;;10.50;74.90;101798.63;5001833;28;20046;-64
2023/05/24 02:38:56;;;;;;;19.75;5.43;;;;;;;10.46;74.80;101803.06;5014753;28;20142;-64
2023/05/24 02:41:23;;;;;;;19.42;4.60;;;;;;;10.27;75.39;101791.06;5004372;28;20401;-63
2023/05/24 02:43:50;;;;;;;28.60;6.47;;;;;;;10.23;76.01;101785.31;5012205;28;20057;-63
2023/05/24 02:46:18;;;;;;;19.80;5.05;;;;;;;10.16;76.33;101797.78;5016762;28;20050;-63
2023/05/24 02:48:45;;;;;;;19.50;5.20;;;;;;;10.20;76.44;101794.16;4998089;28;20354;-63
2023/05/24 02:51:12;;;;;;;22.85;5.57;;;;;;;9.96;76.84;101787.66;5017266;28;20049;-63
2023/05/24 02:53:42;;;;;;;24.85;4.88;;;;;;;10.15;76.44;101801.59;5014661;28;20525;-64
2023/05/24 02:56:10;;;;;;;22.52;5.60;;;;;;;10.02;77.51;101789.25;5015946;28;20042;-63
2023/05/24 02:58:39;;;;;;;23.00;5.53;;;;;;;10.22;76.59;101780.09;5016256;28;20050;-63
2023/05/24 03:01:07;;;;;;;20.77;5.90;;;;;;;9.89;77.87;101778.88;5018500;28;20418;-63
2023/05/24 03:03:35;;;;;;;26.40;6.30;;;;;;;9.93;77.84;101796.50;4989692;28;20064;-64
2023/05/24 03:06:08;;;;;;;25.17;5.88;;;;;;;10.01;77.93;101776.63;4995578;28;20046;-64
2023/05/24 03:08:36;;;;;;;22.50;5.82;;;;;;;10.19;78.14;101767.75;4996671;28;20058;-63
2023/05/24 03:11:04;;;;;;;23.42;5.28;;;;;;;10.53;78.65;101770.50;5011875;28;20061;-63
2023/05/24 03:13:33;;;;;;;22.77;5.65;;;;;;;10.28;75.98;101776.22;4979670;28;20054;-68
2023/05/24 03:16:01;;;;;;;23.05;5.88;;;;;;;9.97;77.53;101777.47;4979410;28;20051;-65
2023/05/24 03:18:29;;;;;;;24.33;5.40;;;;;;;10.16;77.20;101773.00;5006866;28;20050;-65
2023/05/24 03:20:56;;;;;;;14.77;5.00;;;;;;;10.48;76.52;101767.00;4998454;28;20064;-64
2023/05/24 03:23:24;;;;;;;35.35;5.97;;;;;;;10.65;75.06;101779.22;4999025;28;20046;-63
2023/05/24 03:25:52;;;;;;;21.20;5.65;;;;;;;10.41;75.58;101777.50;4998176;28;20050;-64
2023/05/24 03:28:21;;;;;;;22.45;5.45;;;;;;;10.16;77.36;101773.78;5002387;28;20054;-64
2023/05/24 03:30:48;;;;;;;24.40;5.43;;;;;;;10.12;76.88;101783.75;5004561;28;20050;-63
2023/05/24 03:33:17;;;;;;;26.55;5.30;;;;;;;10.01;77.84;101778.53;4993003;28;20058;-65
2023/05/24 03:35:44;;;;;;;24.05;6.03;;;;;;;10.02;77.93;101778.25;4995304;28;20053;-64
2023/05/24 03:38:11;;;;;;;19.85;5.40;;;;;;;9.88;78.81;101777.25;4979701;28;20084;-64
2023/05/24 03:40:42;;;;;;;20.55;5.55;;;;;;;10.09;78.06;101784.28;4998052;28;20054;-65
2023/05/24 03:43:17;;;;;;;20.33;5.60;;;;;;;10.32;77.58;101768.19;5024360;28;20108;-64
2023/05/24 03:45:49;;;;;;;21.38;6.20;;;;;;;10.29;76.95;101783.34;5018673;28;20046;-65
2023/05/24 03:48:19;;;;;;;26.63;5.90;;;;;;;9.95;77.56;101779.69;5010998;28;20061;-66
2023/05/24 03:50:47;;;;;;;19.20;4.80;;;;;;;9.93;78.34;101776.38;5018654;28;20513;-65
2023/05/24 03:53:15;;;;;;;17.73;5.30;;;;;;;10.10;77.83;101776.88;5030355;28;20054;-64
2023/05/24 03:55:42;;;;;;;24.67;5.90;;;;;;;9.81;78.60;101776.75;4997475;28;20046;-65
2023/05/24 03:58:11;;;;;;;21.38;5.18;;;;;;;9.98;78.55;101781.88;5014632;28;20058;-64
2023/05/24 04:00:38;;;;;;;19.30;5.95;;;;;;;9.85;79.31;101790.75;4997636;28;20054;-63
2023/05/24 04:03:07;;;;;;;17.30;5.07;;;;;;;9.68;79.22;101785.59;4976739;28;20057;-64
2023/05/24 04:05:35;;;;;;;21.02;5.80;;;;;;;9.93;78.82;101787.41;5012508;28;20046;-64
2023/05/24 04:08:03;;;;;;;22.15;5.75;;;;;;;9.92;77.92;101808.59;5010386;28;20054;-64
2023/05/24 04:10:30;;;;;;;24.05;6.15;;;;;;;9.67;78.82;101810.63;5023320;28;20069;-64
2023/05/24 04:12:59;;;;;;;22.55;5.43;;;;;;;9.70;78.99;101802.63;4978698;28;20062;-64
2023/05/24 04:15:26;;;;;;;22.52;5.22;;;;;;;9.91;78.42;101800.63;5014809;28;20041;-64
2023/05/24 04:17:54;;;;;;;19.17;5.57;;;;;;;9.90;77.84;101804.47;5016808;28;20053;-65
2023/05/24 04:20:24;;;;;;;16.73;4.85;;;;;;;10.14;78.55;101795.31;4994153;28;20050;-67
2023/05/24 04:22:52;;;;;;;;;;;;;;;9.91;77.19;101806.13;5012233;28;20050;-65
2023/05/24 04:25:19;;;;;;;23.67;5.72;;;;;;;9.73;78.15;101798.47;4996962;28;19926;-66
2023/05/24 04:27:47;;;;;;;25.08;6.05;;;;;;;9.95;79.06;101801.69;5015320;28;20047;-65
2023/05/24 04:30:15;;;;;;;19.33;5.70;;;;;;;10.22;77.88;101810.38;5014482;28;20377;-66
2023/05/24 04:32:46;;;;;;;18.85;5.28;;;;;;;10.22;76.96;101804.88;5015231;28;20776;-65
2023/05/24 04:35:15;;;;;;;21.80;5.30;;;;;;;10.11;76.95;101812.38;5030311;28;20409;-64
2023/05/24 04:37:43;;;;;;;18.88;5.70;;;;;;;10.12;76.30;101805.78;4980661;28;20045;-66
2023/05/24 04:40:11;;;;;;;27.40;6.30;;;;;;;10.13;76.47;101812.91;5002213;28;20049;-64
2023/05/24 04:42:38;;;;;;;24.90;6.53;;;;;;;10.37;76.57;101817.75;5015006;28;20069;-66
2023/05/24 04:45:06;;;;;;;19.30;5.15;;;;;;;10.32;75.49;101829.59;5015182;28;20061;-65
2023/05/24 04:47:36;;;;;;;19.92;5.13;;;;;;;10.22;75.46;101826.09;5014892;28;20054;-65
2023/05/24 04:50:05;;;;;;;21.00;5.47;;;;;;;10.33;74.94;101822.16;4996792;28;20058;-64
2023/05/24 04:52:35;;;;;;;22.75;5.13;;;;;;;10.73;74.35;101822.72;4997445;28;20056;-64
2023/05/24 04:55:03;;;;;;;23.30;5.03;;;;;;;10.68;73.37;101817.25;5014175;28;20065;-65
2023/05/24 04:57:30;;;;;;;26.00;5.88;;;;;;;10.42;73.70;101826.78;5014730;28;20038;-64
2023/05/24 04:59:57;;;;;;;18.67;5.18;;;;;;;10.44;74.06;101821.81;5013056;28;20054;-64
2023/05/24 05:02:25;;;;;;;20.58;5.15;;;;;;;10.03;75.32;101828.63;4996951;28;20064;-64
2023/05/24 05:04:53;;;;;;;21.10;5.28;;;;;;;10.06;75.37;101826.13;5014824;28;20054;-64
2023/05/24 05:07:21;;;;;;;20.65;5.05;;;;;;;10.00;76.08;101829.19;4997276;28;20053;-65
2023/05/24 05:09:48;;;;;;;19.27;5.25;;;;;;;10.38;75.34;101827.63;5009215;28;20077;-65
2023/05/24 05:12:15;;;;;;;17.45;5.40;;;;;;;10.09;75.50;101828.34;4996288;28;20372;-65
2023/05/24 05:14:43;;;;;;;24.00;5.40;;;;;;;10.12;75.43;101826.97;5015324;28;20045;-67
2023/05/24 05:17:10;;;;;;;24.00;5.25;;;;;;;9.99;75.79;101842.13;5015050;28;20048;-64
2023/05/24 05:19:38;;;;;;;22.85;5.65;;;;;;;10.03;76.07;101823.94;5014146;28;20058;-64
2023/05/24 05:22:05;;;;;;;22.17;4.85;;;;;;;10.20;75.22;101827.19;5014520;28;20056;-65
2023/05/24 05:24:32;;;;;;;19.02;4.70;;;;;;;10.48;77.31;101825.63;5028699;28;20057;-64
2023/05/24 05:27:00;;;;;;;25.23;6.03;;;;;;;10.90;73.58;101817.59;5013012;28;20053;-65
2023/05/24 05:29:27;;;;;;;24.85;5.38;;;;;;;10.67;72.38;101829.34;5014435;28;20064;-65
2023/05/24 05:31:54;;;;;;;20.02;5.63;;;;;;;10.67;73.23;101829.34;5014517;28;20061;-64
2023/05/24 05:34:22;;;;;;;23.92;5.75;;;;;;;10.76;72.96;101822.13;5014041;28;20520;-64
2023/05/24 05:36:49;;;;;;;22.15;5.40;;;;;;;11.02;71.87;101829.06;5014275;28;20529;-65
2023/05/24 05:39:17;;;;;;;20.38;5.07;;;;;;;10.86;71.40;101821.22;5009306;28;20073;-65
2023/05/24 05:41:44;;;;;;;21.60;5.03;;;;;;;10.91;71.28;101829.47;4994410;28;20074;-65
2023/05/24 05:44:13;;;;;;;20.73;5.32;;;;;;;10.81;71.19;101830.34;5008583;28;20056;-65
2023/05/24 05:46:42;;;;;;;23.20;4.85;;;;;;;10.70;71.94;101828.81;5014098;28;20413;-65
2023/05/24 05:49:11;;;;;;;21.45;5.43;;;;;;;10.79;72.28;101829.81;5020189;28;20045;-67
2023/05/24 05:51:38;;;;;;;21.95;5.38;;;;;;;10.90;71.17;101827.78;5015521;28;20057;-65
2023/05/24 05:54:13;;;;;;;23.95;5.40;;;;;;;10.66;71.76;101829.66;5014718;28;20053;-65
2023/05/24 05:56:44;;;;;;;24.08;5.80;;;;;;;10.35;72.62;101836.47;5013276;28;20061;-65
2023/05/24 05:59:11;;;;;;;19.45;5.40;;;;;;;10.21;73.83;101836.28;5011580;28;20049;-66
2023/05/24 06:01:40;;;;;;;18.80;5.35;;;;;;;10.39;73.94;101832.84;5007625;28;20042;-66
2023/05/24 06:04:07;;;;;;;24.85;5.97;;;;;;;10.43;73.77;101836.69;5012641;28;20457;-65
2023/05/24 06:06:35;;;;;;;20.98;5.93;;;;;;;10.54;73.01;101831.94;5012817;28;20042;-65
2023/05/24 06:09:02;;;;;;;25.88;5.53;;;;;;;10.76;72.26;101835.91;5013378;28;20058;-65
2023/05/24 06:11:29;;;;;;;22.98;5.30;;;;;;;10.59;72.14;101837.41;5015712;28;20045;-65
2023/05/24 06:13:57;;;;;;;26.33;6.13;;;;;;;10.37;73.13;101829.59;5000186;28;20058;-66
2023/05/24 06:16:24;;;;;;;21.83;5.82;;;;;;;10.63;72.95;101836.56;5032462;28;20058;-65
2023/05/24 06:18:51;;;;;;;19.58;5.38;;;;;;;10.89;71.84;101826.16;5017677;28;20045;-65
2023/05/24 06:21:31;;;;;;;26.45;5.88;;;;;;;11.11;72.93;101838.38;5017343;28;20049;-64
2023/05/24 06:24:01;;;;;;;26.73;5.22;;;;;;;11.15;70.70;101839.44;5016528;28;20070;-65
2023/05/24 06:26:29;;;;;;;27.13;6.40;;;;;;;11.32;70.35;101842.56;5016954;28;20508;-66
2023/05/24 06:28:56;;;;;;;29.17;6.35;;;;;;;11.19;70.44;101839.69;4992698;28;20055;-65
2023/05/24 06:31:23;;;;;;;23.38;5.53;;;;;;;11.08;70.94;101841.72;5017251;28;20050;-66
2023/05/24 06:33:50;;;;;;;26.90;5.72;;;;;;;11.26;69.98;101845.69;5016728;28;20050;-65
2023/05/24 06:36:32;;;;;;;21.38;6.10;;;;;;;11.15;70.27;101844.13;5016968;28;20081;-65
2023/05/24 06:39:01;;;;;;;18.23;5.68;;;;;;;11.03;70.55;101861.06;5016098;28;20053;-65
2023/05/24 06:41:28;;;;;;;20.15;5.47;;;;;;;11.02;71.04;101844.78;5000603;28;20049;-64
2023/05/24 06:43:59;;;;;;;23.42;5.60;;;;;;;11.59;70.68;101842.03;4990752;28;20934;-65
2023/05/24 06:46:27;;;;;;;26.52;5.68;;;;;;;11.74;68.32;101852.09;5013925;28;20056;-64
2023/05/24 06:48:54;;;;;;;22.45;5.78;;;;;;;11.91;68.24;101844.97;5012633;28;20065;-64
2023/05/24 06:51:22;;;;;;;23.20;4.85;;;;;;;12.09;67.99;101846.13;5029738;28;20477;-64
2023/05/24 06:53:49;;;;;;;27.20;5.35;;;;;;;11.83;67.35;101845.63;5003027;28;20567;-64
2023/05/24 06:56:17;;;;;;;40.13;6.70;;;;;;;11.41;68.23;101852.97;5016868;28;20065;-63
2023/05/24 06:58:44;;;;;;;18.83;5.35;;;;;;;11.52;68.87;101854.50;5000366;28;20520;-64
2023/05/24 07:01:13;;;;;;;30.52;5.68;;;;;;;12.15;68.25;101861.53;5021452;28;20054;-64
2023/05/24 07:03:41;;;;;;;25.08;5.10;;;;;;;12.26;67.72;101852.81;5019977;28;20068;-63
2023/05/24 07:06:12;;;;;;;20.75;4.90;;;;;;;12.93;67.53;101859.00;5014271;28;20058;-63
2023/05/24 07:08:43;;;;;;;17.77;5.05;;;;;;;12.88;66.16;101851.63;4992885;28;20066;-63
2023/05/24 07:11:10;;;;;;;25.70;5.40;;;;;;;12.77;66.03;101849.28;5015029;28;20489;-64
2023/05/24 07:13:38;;;;;;;30.88;5.80;;;;;;;13.15;66.77;101857.25;5015198;28;20042;-63
2023/05/24 07:16:05;;;;;;;15.57;4.63;;;;;;;13.34;64.42;101855.25;5012139;28;20050;-64
2023/05/24 07:18:33;;;;;;;21.20;5.30;;;;;;;13.11;64.92;101860.94;5008883;28;20042;-66
2023/05/24 07:21:00;;;;;;;28.85;6.07;;;;;;;13.13;63.68;101850.38;5013017;28;20054;-66
2023/05/24 07:23:27;;;;;;;32.72;6.43;;;;;;;14.07;64.59;101843.31;5014510;28;20069;-66
2023/05/24 07:25:55;;;;;;;39.67;6.15;;;;;;;14.09;60.29;101849.34;5012219;28;20184;-65
2023/05/24 07:28:22;;;;;;;22.33;5.47;;;;;;;14.05;59.49;101840.81;5012179;28;20463;-65
2023/05/24 07:30:50;;;;;;;20.15;5.60;;;;;;;13.23;60.28;101851.00;5013564;28;20054;-66
2023/05/24 07:33:18;;;;;;;21.23;5.50;;;;;;;13.00;61.67;101854.72;4993069;28;20070;-65
2023/05/24 07:35:50;;;;;;;25.98;5.45;;;;;;;13.78;60.09;101857.47;4994198;28;20046;-65
2023/05/24 07:38:17;;;;;;;22.88;5.30;;;;;;;14.70;58.72;101849.66;5027232;28;20053;-66
2023/05/24 07:40:45;;;;;;;21.98;5.20;;;;;;;15.20;56.68;101847.59;4995002;28;20054;-66
2023/05/24 07:43:12;;;;;;;21.98;5.55;;;;;;;14.71;55.77;101845.75;5008280;28;20046;-66
2023/05/24 07:45:39;;;;;;;35.58;6.47;;;;;;;15.04;55.50;101843.56;5013431;28;20073;-68
2023/05/24 07:48:07;;;;;;;21.35;5.45;;;;;;;15.47;54.29;101845.50;5010287;28;20057;-66
2023/05/24 07:50:35;;;;;;;21.42;5.47;;;;;;;15.64;52.20;101841.97;5011151;28;20064;-66
2023/05/24 07:53:04;;;;;;;22.17;4.97;;;;;;;15.40;53.50;101852.63;5011128;28;20435;-67
2023/05/24 07:55:31;;;;;;;23.70;5.85;;;;;;;14.53;54.24;101853.09;5012176;28;20046;-66
2023/05/24 07:57:58;;;;;;;17.30;4.20;;;;;;;15.32;53.41;101861.72;5011352;28;20054;-67
2023/05/24 08:00:26;;;;;;;20.20;5.25;;;;;;;14.91;55.26;101858.31;4995130;28;20061;-65
2023/05/24 08:02:53;;;;;;;22.58;4.97;;;;;;;15.13;53.39;101858.31;5013555;28;20058;-65
2023/05/24 08:05:21;;;;;;;19.25;5.13;;;;;;;14.83;55.85;101862.66;5011740;28;20054;-66
2023/05/24 08:07:49;;;;;;;27.20;5.38;;;;;;;14.85;55.88;101867.91;4993434;28;20156;-66
2023/05/24 08:10:17;;;;;;;19.08;5.38;;;;;;;14.71;54.11;101859.63;4985066;28;20057;-65
2023/05/24 08:12:44;;;;;;;24.55;5.25;;;;;;;14.48;53.66;101858.78;5002271;28;20054;-66
2023/05/24 08:15:12;;;;;;;20.40;4.93;;;;;;;13.99;54.82;101858.72;5020047;28;20448;-66
2023/05/24 08:17:39;;;;;;;19.40;4.50;;;;;;;14.59;53.97;101862.94;4998880;28;20457;-66
2023/05/24 08:20:13;;;;;;;20.55;4.90;;;;;;;14.47;54.42;101861.88;5000277;28;20934;-63
2023/05/24 08:22:41;;;;;;;23.63;5.90;;;;;;;14.35;55.02;101858.78;5009170;28;20052;-64
2023/05/24 08:25:10;;;;;;;24.60;5.00;;;;;;;14.99;53.85;101855.63;5007079;28;20053;-65
2023/05/24 08:27:37;;;;;;;25.83;5.70;;;;;;;14.93;52.32;101859.63;5018661;28;20054;-64
2023/05/24 08:30:06;;;;;;;18.75;5.68;;;;;;;14.43;54.16;101864.44;5013824;28;20042;-63
2023/05/24 08:32:33;;;;;;;29.13;5.25;;;;;;;14.64;54.13;101865.59;5007189;28;20055;-62
2023/05/24 08:35:01;;;;;;;20.15;4.13;;;;;;;14.74;51.10;101866.50;5012127;28;20054;-63
2023/05/24 08:37:46;;;;;;;17.17;4.22;;;;;;;14.77;52.50;101855.59;5003892;28;20061;-66
2023/05/24 08:40:14;;;;;;;23.25;4.90;;;;;;;14.87;50.37;101855.34;4994405;28;20042;-63
2023/05/24 08:42:43;;;;;;;31.63;4.03;;;;;;;14.48;49.81;101853.22;5008793;28;20050;-64
2023/05/24 08:45:11;;;;;;;15.85;3.80;;;;;;;14.82;50.32;101860.22;5004188;28;20061;-64
2023/05/24 08:47:39;;;;;;;14.52;3.55;;;;;;;14.45;50.62;101858.56;4993747;28;20090;-64
2023/05/24 08:50:07;;;;;;;16.15;3.92;;;;;;;14.68;52.97;101844.44;5017991;28;20053;-64
2023/05/24 08:52:35;;;;;;;18.17;3.85;;;;;;;14.57;49.99;101856.09;5016751;28;20567;-64
2023/05/24 08:55:04;;;;;;;19.17;3.65;;;;;;;14.86;51.10;101852.88;5009567;28;20048;-64
2023/05/24 08:57:33;;;;;;;27.98;4.80;;;;;;;14.31;50.06;101850.25;5011520;28;20686;-64
2023/05/24 09:00:01;;;;;;;20.63;3.73;;;;;;;14.76;49.67;101853.97;5012153;28;20049;-66
2023/05/24 09:02:29;;;;;;;13.55;3.30;;;;;;;14.57;47.87;101848.56;5007874;28;20048;-64
2023/05/24 09:04:57;;;;;;;17.90;3.15;;;;;;;14.81;46.30;101855.78;5011667;28;20042;-65
2023/05/24 09:07:25;;;;;;;16.05;3.30;;;;;;;14.82;46.70;101840.78;5013713;28;20050;-64
2023/05/24 09:10:05;;;;;;;17.13;3.28;;;;;;;14.66;46.57;101841.13;5013135;28;20045;-64
2023/05/24 09:12:35;;;;;;;14.48;3.47;;;;;;;14.79;46.33;101839.44;5011872;28;20046;-65
2023/05/24 09:15:06;;;;;;;11.80;2.60;;;;;;;14.68;45.03;101840.81;4991852;28;20049;-65
2023/05/24 09:17:35;;;;;;;14.95;3.00;;;;;;;14.87;44.35;101849.78;5006484;28;20042;-63
2023/05/24 09:20:07;;;;;;;13.15;3.28;;;;;;;14.80;43.98;101843.06;5014390;28;20046;-63
2023/05/24 09:22:37;;;;;;;10.65;2.60;;;;;;;14.80;44.46;101843.06;4992677;28;20073;-63
2023/05/24 09:25:09;;;;;;;15.10;3.35;;;;;;;15.13;43.02;101847.22;5004768;28;20050;-63
2023/05/24 09:27:37;;;;;;;10.40;2.25;;;;;;;15.13;41.24;101841.66;5011896;28;20064;-64
2023/05/24 09:30:11;;;;;;;17.58;3.20;;;;;;;15.21;42.96;101832.56;5009692;28;20046;-63
2023/05/24 09:32:39;;;;;;;15.25;3.45;;;;;;;15.29;42.91;101827.06;5005095;28;20046;-65
2023/05/24 09:35:08;;;;;;;11.95;3.00;;;;;;;15.24;41.96;101820.81;5017980;28;20045;-65
2023/05/24 09:37:39;;;;;;;15.02;3.10;;;;;;;15.26;43.15;101827.72;5009295;28;20057;-64
2023/05/24 09:40:17;;;;;;;9.43;2.97;;;;;;;15.51;41.47;101846.50;5004496;28;20049;-63
2023/05/24 09:42:45;;;;;;;14.32;3.08;;;;;;;15.40;40.72;101827.63;5003345;28;20065;-64
2023/05/24 09:45:12;;;;;;;11.27;2.40;;;;;;;15.30;40.07;101825.94;5005219;28;20065;-64
2023/05/24 09:47:41;;;;;;;15.55;3.30;;;;;;;15.56;40.65;101829.69;4990805;28;20058;-61
2023/05/24 09:50:13;;;;;;;17.38;3.15;;;;;;;15.84;41.43;101821.13;5010738;28;20056;-63
2023/05/24 09:52:41;;;;;;;9.75;2.92;;;;;;;15.82;39.63;101832.56;5008130;28;20069;-68
2023/05/24 09:55:15;;;;;;;9.32;2.50;;;;;;;15.85;37.52;101837.47;5017478;28;20061;-66
2023/05/24 09:57:44;;;;;;;14.85;2.70;;;;;;;15.91;39.85;101821.50;5008795;28;20060;-64
2023/05/24 10:00:20;;;;;;;9.25;2.58;;;;;;;16.01;38.65;101822.00;4997295;28;20052;-65
2023/05/24 10:03:03;;;;;;;13.02;2.92;;;;;;;15.77;38.73;101838.28;5004167;28;20049;-64
2023/05/24 10:05:30;;;;;;;8.88;2.63;;;;;;;15.95;38.52;101830.81;5012025;28;20085;-65
2023/05/24 10:07:59;;;;;;;13.25;2.92;;;;;;;15.82;37.67;101827.03;4992956;28;20064;-64
2023/05/24 10:10:28;;;;;;;12.07;2.65;;;;;;;15.76;38.28;101818.00;4994100;28;20135;-65
2023/05/24 10:12:56;;;;;;;11.23;2.25;;;;;;;15.74;37.93;101825.84;5023146;28;20065;-65
2023/05/24 10:15:24;;;;;;;22.02;3.53;;;;;;;15.94;38.13;101815.28;5011061;28;20061;-64
2023/05/24 10:17:56;;;;;;;17.67;3.80;;;;;;;16.28;38.51;101805.06;5012552;28;20062;-64
2023/05/24 10:20:24;;;;;;;11.07;2.67;;;;;;;16.15;37.80;101797.69;4996182;28;20045;-63
2023/05/24 10:23:00;;;;;;;19.65;3.22;;;;;;;16.15;36.71;101813.53;5013217;28;20049;-66
2023/05/24 10:25:28;;;;;;;11.95;2.72;;;;;;;16.18;36.05;101807.34;5009363;28;20065;-65
2023/05/24 10:27:57;;;;;;;10.02;2.33;;;;;;;16.12;38.15;101811.41;5007903;28;20054;-64
2023/05/24 10:30:51;;;;;;;11.13;2.70;;;;;;;16.24;36.79;101811.59;5009736;28;20045;-64
2023/05/24 10:33:21;;;;;;;13.63;2.33;;;;;;;16.12;38.29;101794.72;5008950;28;20049;-64
2023/05/24 10:35:48;;;;;;;15.48;3.40;;;;;;;16.45;38.05;101796.75;4996867;28;20053;-64
2023/05/24 10:38:16;;;;;;;18.63;3.10;;;;;;;16.82;37.47;101784.16;5012453;28;20049;-63
2023/05/24 10:40:43;;;;;;;9.23;2.55;;;;;;;17.07;37.18;101790.84;5009868;28;20038;-63
2023/05/24 10:43:11;;;;;;;13.40;3.35;;;;;;;16.68;35.66;101795.44;5009244;28;20042;-64
2023/05/24 10:45:39;;;;;;;12.88;3.20;;;;;;;16.76;36.40;101793.81;5014186;28;20057;-63
2023/05/24 10:48:13;;;;;;;13.05;2.92;;;;;;;16.72;37.00;101788.09;5010794;28;20054;-63
2023/05/24 10:50:41;;;;;;;12.38;3.00;;;;;;;16.95;36.63;101794.28;5016302;28;20057;-65
2023/05/24 10:53:16;;;;;;;13.68;2.95;;;;;;;16.75;37.04;101812.47;5008695;28;20050;-65
2023/05/24 10:56:05;;;;;;;9.27;2.95;;;;;;;16.83;35.04;101789.38;5009804;28;20050;-65
2023/05/24 10:58:33;;;;;;;12.90;2.92;;;;;;;16.60;34.96;101806.56;5008439;28;20056;-65
2023/05/24 11:01:00;;;;;;;9.73;2.55;;;;;;;16.73;34.34;101802.81;5015404;28;20053;-67
2023/05/24 11:03:34;;;;;;;9.63;2.50;;;;;;;16.56;34.34;101791.69;5014342;28;20057;-65
2023/05/24 11:06:01;;;;;;;10.48;2.10;;;;;;;16.69;34.97;101794.31;5020347;28;20424;-65
2023/05/24 11:08:34;;;;;;;8.73;2.40;;;;;;;16.80;33.97;101792.00;5014299;28;20061;-64
2023/05/24 11:11:05;;;;;;;8.82;2.50;;;;;;;16.84;34.99;101799.34;4994474;28;20669;-65
2023/05/24 11:13:55;;;;;;;6.18;2.30;;;;;;;16.70;34.01;101790.38;5023982;28;20511;-64
2023/05/24 11:16:37;;;;;;;9.48;2.40;;;;;;;16.83;34.69;101785.78;5011036;28;20081;-64
2023/05/24 11:19:23;;;;;;;8.38;2.63;;;;;;;17.06;33.65;101790.00;5013621;28;20056;-65
2023/05/24 11:21:57;;;;;;;7.70;2.28;;;;;;;16.89;34.35;101799.19;5013055;28;20543;-64
2023/05/24 11:24:26;;;;;;;7.85;2.40;;;;;;;16.94;34.88;101775.13;5011879;28;20488;-65
2023/05/24 11:26:53;;;;;;;10.32;2.65;;;;;;;17.05;34.53;101781.97;5014021;28;20050;-66
2023/05/24 11:29:21;;;;;;;11.57;2.45;;;;;;;17.11;34.40;101803.75;5022411;28;20045;-65